createdAt,value
2023-05-17T00:02:04.323Z,18.99
2023-05-17T00:04:33.422Z,18.95
2023-05-17T00:07:01.114Z,18.88
2023-05-17T00:09:28.706Z,18.89
2023-05-17T00:11:56.969Z,18.82
2023-05-17T00:14:24.651Z,18.76
2023-05-17T00:16:52.791Z,18.70
2023-05-17T00:19:20.689Z,18.72
2023-05-17T00:21:48.357Z,18.65
2023-05-17T00:24:16.127Z,18.65
2023-05-17T00:26:43.762Z,18.63
2023-05-17T00:29:11.264Z,18.66
2023-05-17T00:31:38.754Z,18.61
2023-05-17T00:34:06.403Z,18.65
2023-05-17T00:36:33.927Z,18.72
2023-05-17T00:39:02.900Z,18.69
2023-05-17T00:41:30.560Z,18.69
2023-05-17T00:43:58.149Z,18.71
2023-05-17T00:46:25.901Z,18.70
2023-05-17T00:48:54.215Z,18.70
2023-05-17T00:51:22.856Z,18.71
2023-05-17T00:53:50.931Z,18.66
2023-05-17T00:56:18.823Z,18.66
2023-05-17T00:58:46.818Z,18.62
2023-05-17T01:01:14.721Z,18.60
2023-05-17T01:03:46.547Z,18.63
2023-05-17T01:06:15.170Z,18.51
2023-05-17T01:08:43.689Z,18.55
2023-05-17T01:11:16.505Z,18.54
2023-05-17T01:13:50.200Z,18.55
2023-05-17T01:16:17.962Z,18.48
2023-05-17T01:19:01.653Z,18.50
2023-05-17T01:21:43.230Z,18.44
2023-05-17T01:24:48.983Z,18.42
2023-05-17T01:27:18.989Z,18.27
2023-05-17T01:29:49.761Z,18.21
2023-05-17T01:32:18.185Z,18.24
2023-05-17T01:34:45.711Z,18.24
2023-05-17T01:37:13.554Z,18.15
2023-05-17T01:39:41.747Z,18.15
2023-05-17T01:42:31.253Z,18.09
2023-05-17T01:45:40.559Z,17.99
2023-05-17T01:48:44.296Z,17.90
2023-05-17T01:51:19.047Z,17.93
2023-05-17T01:53:57.326Z,17.94
2023-05-17T01:56:33.729Z,17.81
2023-05-17T01:59:06.789Z,17.87
2023-05-17T02:01:36.566Z,17.81
2023-05-17T02:04:04.283Z,17.78
2023-05-17T02:06:32.889Z,17.72
2023-05-17T02:09:02.937Z,17.67
2023-05-17T02:11:30.912Z,17.61
2023-05-17T02:13:59.042Z,17.58
2023-05-17T02:16:26.573Z,17.53
2023-05-17T02:18:54.221Z,17.49
2023-05-17T02:21:21.852Z,17.50
2023-05-17T02:23:49.381Z,17.48
2023-05-17T02:26:19.712Z,17.43
2023-05-17T02:28:47.276Z,17.44
2023-05-17T02:31:14.878Z,17.45
2023-05-17T02:33:43.131Z,17.52
2023-05-17T02:36:11.222Z,17.45
2023-05-17T02:38:39.516Z,17.41
2023-05-17T02:41:07.037Z,17.48
2023-05-17T02:43:34.742Z,17.59
2023-05-17T02:46:04.590Z,17.50
2023-05-17T02:48:32.316Z,17.57
2023-05-17T02:50:59.850Z,17.52
2023-05-17T02:53:27.526Z,17.61
2023-05-17T02:55:58.191Z,17.63
2023-05-17T02:58:26.020Z,17.61
2023-05-17T03:00:53.699Z,17.61
2023-05-17T03:03:21.418Z,17.58
2023-05-17T03:05:49.181Z,17.57
2023-05-17T03:08:16.784Z,17.59
2023-05-17T03:10:45.678Z,17.57
2023-05-17T03:13:13.442Z,17.53
2023-05-17T03:15:41.320Z,17.55
2023-05-17T03:18:08.997Z,17.55
2023-05-17T03:20:38.590Z,17.62
2023-05-17T03:23:07.055Z,17.62
2023-05-17T03:25:39.789Z,17.61
2023-05-17T03:28:07.310Z,17.58
2023-05-17T03:30:35.143Z,17.63
2023-05-17T03:33:05.534Z,17.64
2023-05-17T03:35:33.460Z,17.60
2023-05-17T03:38:00.997Z,17.65
2023-05-17T03:40:28.977Z,17.69
2023-05-17T03:42:57.799Z,17.69
2023-05-17T03:45:27.612Z,17.82
2023-05-17T03:47:55.454Z,17.85
2023-05-17T03:50:23.825Z,17.87
2023-05-17T03:52:51.286Z,17.88
2023-05-17T03:55:19.656Z,17.92
2023-05-17T03:57:47.495Z,17.96
2023-05-17T04:00:21.280Z,18.08
2023-05-17T04:02:49.343Z,18.17
2023-05-17T04:05:19.372Z,18.20
2023-05-17T04:07:48.600Z,18.30
2023-05-17T04:10:16.331Z,18.38
2023-05-17T04:12:46.226Z,18.48
2023-05-17T04:15:13.863Z,18.56
2023-05-17T04:17:43.089Z,18.55
2023-05-17T04:20:11.489Z,18.62
2023-05-17T04:22:39.681Z,18.79
2023-05-17T04:25:08.487Z,18.91
2023-05-17T04:27:37.401Z,18.96
2023-05-17T04:30:08.072Z,18.95
2023-05-17T04:32:36.021Z,18.95
2023-05-17T04:35:04.763Z,18.80
2023-05-17T04:37:32.862Z,18.79
2023-05-17T04:40:07.998Z,18.79
2023-05-17T04:42:35.823Z,18.93
2023-05-17T04:45:05.538Z,18.84
2023-05-17T04:47:33.186Z,18.86
2023-05-17T04:50:01.473Z,19.05
2023-05-17T04:52:29.231Z,19.05
2023-05-17T04:54:57.064Z,19.15
2023-05-17T04:57:24.634Z,19.18
2023-05-17T04:59:58.709Z,19.22
2023-05-17T05:02:27.307Z,19.10
2023-05-17T05:04:54.965Z,19.04
2023-05-17T05:07:22.597Z,19.12
2023-05-17T05:09:50.551Z,19.21
2023-05-17T05:12:19.415Z,19.25
2023-05-17T05:14:48.174Z,19.33
2023-05-17T05:17:15.872Z,19.31
2023-05-17T05:19:43.545Z,19.33
2023-05-17T05:22:11.661Z,19.43
2023-05-17T05:24:40.199Z,19.44
2023-05-17T05:27:08.041Z,19.60
2023-05-17T05:29:36.861Z,19.46
2023-05-17T05:32:04.667Z,19.55
2023-05-17T05:34:38.978Z,19.60
2023-05-17T05:37:06.733Z,19.76
2023-05-17T05:39:34.794Z,19.76
2023-05-17T05:42:04.335Z,19.83
2023-05-17T05:44:32.792Z,19.84
2023-05-17T05:47:00.935Z,19.82
2023-05-17T05:49:28.567Z,19.78
2023-05-17T05:51:56.415Z,19.83
2023-05-17T05:54:25.948Z,19.87
2023-05-17T05:56:54.621Z,19.99
2023-05-17T05:59:22.339Z,20.09
2023-05-17T06:01:49.966Z,20.15
2023-05-17T06:04:17.512Z,20.19
2023-05-17T06:06:45.183Z,20.12
2023-05-17T06:09:12.927Z,20.13
2023-05-17T06:11:40.544Z,20.14
2023-05-17T06:14:08.509Z,20.11
2023-05-17T06:16:36.459Z,20.26
2023-05-17T06:19:04.520Z,20.38
2023-05-17T06:21:32.455Z,20.32
2023-05-17T06:23:59.982Z,20.32
2023-05-17T06:26:27.654Z,20.47
2023-05-17T06:28:55.151Z,20.62
2023-05-17T06:31:22.724Z,20.70
2023-05-17T06:33:50.392Z,20.82
2023-05-17T06:36:17.902Z,20.82
2023-05-17T06:38:45.479Z,20.99
2023-05-17T06:41:13.266Z,21.08
2023-05-17T06:43:40.930Z,21.17
2023-05-17T06:46:08.624Z,21.34
2023-05-17T06:48:36.414Z,21.36
2023-05-17T06:51:04.044Z,21.43
2023-05-17T06:53:32.220Z,21.42
2023-05-17T06:55:59.856Z,21.41
2023-05-17T06:58:27.408Z,21.39
2023-05-17T07:00:55.033Z,21.45
2023-05-17T07:03:23.001Z,21.61
2023-05-17T07:05:50.649Z,21.73
2023-05-17T07:08:18.390Z,21.78
2023-05-17T07:10:46.552Z,21.64
2023-05-17T07:13:14.189Z,21.61
2023-05-17T07:15:41.775Z,21.73
2023-05-17T07:18:11.265Z,21.78
2023-05-17T07:20:38.985Z,22.04
2023-05-17T07:23:06.730Z,21.99
2023-05-17T07:25:34.369Z,22.09
2023-05-17T07:28:01.912Z,22.14
2023-05-17T07:30:31.526Z,22.10
2023-05-17T07:32:59.625Z,22.35
2023-05-17T07:35:27.260Z,22.52
2023-05-17T07:37:55.124Z,22.26
2023-05-17T07:40:22.766Z,22.31
2023-05-17T07:42:50.651Z,22.46
2023-05-17T07:45:18.768Z,22.70
2023-05-17T07:47:46.424Z,22.37
2023-05-17T07:50:14.091Z,22.59
2023-05-17T07:52:41.793Z,22.56
2023-05-17T07:55:10.128Z,22.64
2023-05-17T07:57:38.114Z,22.77
2023-05-17T08:00:08.898Z,23.05
2023-05-17T08:02:41.349Z,23.20
2023-05-17T08:05:09.703Z,23.27
2023-05-17T08:07:37.868Z,23.15
2023-05-17T08:10:05.935Z,22.85
2023-05-17T08:12:33.856Z,22.96
2023-05-17T08:15:01.436Z,23.18
2023-05-17T08:17:29.254Z,23.01
2023-05-17T08:19:57.870Z,22.75
2023-05-17T08:22:26.504Z,22.64
2023-05-17T08:24:54.083Z,22.70
2023-05-17T08:27:21.709Z,22.86
2023-05-17T08:29:49.604Z,22.87
2023-05-17T08:32:17.285Z,22.82
2023-05-17T08:34:44.858Z,23.05
2023-05-17T08:37:12.548Z,23.30
2023-05-17T08:39:40.265Z,23.56
2023-05-17T08:42:08.409Z,23.63
2023-05-17T08:44:37.235Z,23.78
2023-05-17T08:47:07.651Z,23.82
2023-05-17T08:49:38.116Z,23.92
2023-05-17T08:52:10.212Z,23.86
2023-05-17T08:54:38.054Z,23.66
2023-05-17T08:57:07.407Z,23.69
2023-05-17T08:59:35.457Z,23.61
2023-05-17T09:02:05.768Z,23.55
2023-05-17T09:04:34.294Z,23.46
2023-05-17T09:07:02.069Z,23.47
2023-05-17T09:09:30.006Z,23.45
2023-05-17T09:11:57.563Z,23.62
2023-05-17T09:14:25.161Z,23.66
2023-05-17T09:17:00.105Z,23.53
2023-05-17T09:19:28.244Z,23.60
2023-05-17T09:21:56.148Z,23.58
2023-05-17T09:24:31.016Z,23.87
2023-05-17T09:27:03.726Z,23.93
2023-05-17T09:29:32.775Z,23.80
2023-05-17T09:32:20.997Z,23.67
2023-05-17T09:34:48.763Z,23.71
2023-05-17T09:37:17.635Z,23.73
2023-05-17T09:39:47.040Z,23.66
2023-05-17T09:42:16.864Z,23.58
2023-05-17T09:44:57.657Z,23.50
2023-05-17T09:47:29.289Z,23.68
2023-05-17T09:50:00.715Z,23.98
2023-05-17T09:52:32.363Z,23.92
2023-05-17T09:55:01.148Z,24.07
2023-05-17T09:57:37.902Z,24.22
2023-05-17T10:00:12.420Z,23.87
2023-05-17T10:02:48.327Z,23.93
2023-05-17T10:05:17.930Z,23.98
2023-05-17T10:07:48.066Z,23.86
2023-05-17T10:10:18.211Z,24.08
2023-05-17T10:12:47.455Z,23.89
2023-05-17T10:15:17.838Z,23.90
2023-05-17T10:17:46.302Z,23.99
2023-05-17T10:20:15.725Z,24.05
2023-05-17T10:22:44.062Z,24.11
2023-05-17T10:25:12.631Z,23.88
2023-05-17T10:27:41.927Z,23.97
2023-05-17T10:30:11.603Z,24.31
2023-05-17T10:32:39.933Z,24.47
2023-05-17T10:35:12.026Z,23.96
2023-05-17T10:37:41.364Z,23.79
2023-05-17T10:40:14.034Z,24.05
2023-05-17T10:42:46.940Z,24.05
2023-05-17T10:45:14.948Z,24.20
2023-05-17T10:47:43.622Z,23.98
2023-05-17T10:50:13.331Z,24.16
2023-05-17T10:52:48.916Z,24.16
2023-05-17T10:55:20.978Z,24.18
2023-05-17T10:58:16.140Z,24.34
2023-05-17T11:00:47.557Z,24.27
2023-05-17T11:03:18.568Z,24.58
2023-05-17T11:06:23.333Z,24.68
2023-05-17T11:09:13.860Z,24.72
2023-05-17T11:12:05.509Z,24.64
2023-05-17T11:14:45.644Z,24.46
2023-05-17T11:17:20.762Z,24.64
2023-05-17T11:19:55.034Z,24.50
2023-05-17T11:22:37.260Z,24.66
2023-05-17T11:25:09.294Z,24.61
2023-05-17T11:27:39.891Z,24.79
2023-05-17T11:30:31.808Z,24.59
2023-05-17T11:33:05.717Z,24.82
2023-05-17T11:35:39.575Z,24.82
2023-05-17T11:38:24.510Z,24.92
2023-05-17T11:40:56.905Z,24.77
2023-05-17T11:43:27.428Z,24.64
2023-05-17T11:46:01.724Z,24.77
2023-05-17T11:48:31.623Z,24.98
2023-05-17T11:51:01.518Z,25.14
2023-05-17T11:53:31.253Z,25.19
2023-05-17T11:56:04.181Z,24.99
2023-05-17T11:58:32.193Z,24.87
2023-05-17T12:00:59.764Z,24.75
2023-05-17T12:03:29.251Z,24.76
2023-05-17T12:06:13.253Z,24.82
2023-05-17T12:08:46.487Z,24.60
2023-05-17T12:11:18.963Z,24.59
2023-05-17T12:13:49.138Z,24.77
2023-05-17T12:16:22.611Z,25.04
2023-05-17T12:18:52.150Z,25.10
2023-05-17T12:21:21.471Z,25.27
2023-05-17T12:23:52.090Z,25.26
2023-05-17T12:26:22.468Z,25.15
2023-05-17T12:28:58.168Z,25.00
2023-05-17T12:31:30.137Z,25.30
2023-05-17T12:33:59.447Z,25.38
2023-05-17T12:36:29.824Z,25.45
2023-05-17T12:38:57.821Z,25.71
2023-05-17T12:41:26.783Z,25.53
2023-05-17T12:44:06.314Z,25.71
2023-05-17T12:46:42.164Z,25.65
2023-05-17T12:49:11.968Z,25.19
2023-05-17T12:51:42.404Z,24.93
2023-05-17T12:54:10.604Z,25.09
2023-05-17T12:56:38.332Z,25.47
2023-05-17T12:59:15.462Z,25.57
2023-05-17T13:01:45.739Z,25.49
2023-05-17T13:04:15.186Z,25.52
2023-05-17T13:07:00.020Z,25.45
2023-05-17T13:09:31.043Z,25.47
2023-05-17T13:11:59.757Z,25.71
2023-05-17T13:14:46.515Z,25.46
2023-05-17T13:17:34.713Z,24.90
2023-05-17T13:20:02.457Z,24.71
2023-05-17T13:22:30.317Z,24.88
2023-05-17T13:24:57.868Z,25.06
2023-05-17T13:27:25.512Z,25.31
2023-05-17T13:29:53.268Z,25.04
2023-05-17T13:32:21.332Z,25.06
2023-05-17T13:34:48.886Z,25.10
2023-05-17T13:37:16.524Z,25.14
2023-05-17T13:39:44.133Z,25.00
2023-05-17T13:42:13.119Z,25.02
2023-05-17T13:44:40.838Z,25.16
2023-05-17T13:47:08.526Z,25.30
2023-05-17T13:49:36.350Z,25.37
2023-05-17T13:52:03.943Z,25.61
2023-05-17T13:54:31.840Z,25.40
2023-05-17T13:56:59.526Z,25.54
2023-05-17T13:59:27.640Z,25.26
2023-05-17T14:01:55.211Z,25.11
2023-05-17T14:04:22.862Z,25.31
2023-05-17T14:06:54.119Z,25.57
2023-05-17T14:09:22.683Z,25.27
2023-05-17T14:11:50.290Z,25.00
2023-05-17T14:14:17.923Z,25.17
2023-05-17T14:16:46.011Z,25.18
2023-05-17T14:19:13.624Z,25.22
2023-05-17T14:21:41.204Z,25.17
2023-05-17T14:24:08.768Z,25.21
2023-05-17T14:26:37.288Z,25.36
2023-05-17T14:29:07.977Z,25.21
2023-05-17T14:31:35.697Z,25.20
2023-05-17T14:34:04.017Z,25.29
2023-05-17T14:36:34.021Z,25.26
2023-05-17T14:39:01.788Z,25.49
2023-05-17T14:41:29.561Z,25.61
2023-05-17T14:43:57.170Z,25.65
2023-05-17T14:46:24.908Z,25.67
2023-05-17T14:48:52.628Z,25.78
2023-05-17T14:51:20.370Z,26.00
2023-05-17T14:53:48.216Z,26.85
2023-05-17T14:56:16.878Z,27.52
2023-05-17T14:58:44.602Z,28.06
2023-05-17T15:01:12.256Z,27.96
2023-05-17T15:03:39.911Z,27.38
2023-05-17T15:06:09.533Z,27.32
2023-05-17T15:08:40.766Z,27.87
2023-05-17T15:11:09.622Z,27.85
2023-05-17T15:13:38.263Z,28.45
2023-05-17T15:16:06.301Z,28.89
2023-05-17T15:18:33.960Z,28.76
2023-05-17T15:21:02.660Z,28.68
2023-05-17T15:23:30.430Z,28.37
2023-05-17T15:25:58.089Z,28.02
2023-05-17T15:28:25.797Z,28.18
2023-05-17T15:31:06.412Z,28.36
2023-05-17T15:33:34.161Z,28.90
2023-05-17T15:36:02.100Z,28.86
2023-05-17T15:38:30.031Z,28.95
2023-05-17T15:41:06.617Z,28.62
2023-05-17T15:43:35.100Z,28.97
2023-05-17T15:46:02.647Z,28.50
2023-05-17T15:48:31.105Z,28.43
2023-05-17T15:51:01.368Z,27.96
2023-05-17T15:53:30.021Z,27.95
2023-05-17T15:55:57.641Z,27.64
2023-05-17T15:58:28.068Z,26.63
2023-05-17T16:00:55.979Z,26.06
2023-05-17T16:03:23.530Z,25.46
2023-05-17T16:05:51.679Z,25.20
2023-05-17T16:08:20.449Z,24.82
2023-05-17T16:10:48.104Z,24.44
2023-05-17T16:13:16.324Z,24.27
2023-05-17T16:15:43.918Z,24.16
2023-05-17T16:18:13.815Z,24.02
2023-05-17T16:20:41.998Z,23.87
2023-05-17T16:23:09.942Z,23.65
2023-05-17T16:25:37.695Z,23.59
2023-05-17T16:28:05.402Z,23.54
2023-05-17T16:30:33.330Z,23.37
2023-05-17T16:33:01.403Z,23.21
2023-05-17T16:35:29.347Z,23.12
2023-05-17T16:37:57.034Z,23.11
2023-05-17T16:40:24.607Z,22.99
2023-05-17T16:42:52.111Z,22.96
2023-05-17T16:45:20.078Z,22.92
2023-05-17T16:47:47.682Z,22.88
2023-05-17T16:50:15.327Z,22.78
2023-05-17T16:52:42.941Z,22.75
2023-05-17T16:55:10.557Z,22.66
2023-05-17T16:57:38.415Z,22.63
2023-05-17T17:00:06.699Z,22.50
2023-05-17T17:02:34.525Z,22.46
2023-05-17T17:05:04.454Z,22.43
2023-05-17T17:07:32.683Z,22.29
2023-05-17T17:10:00.321Z,22.24
2023-05-17T17:12:27.912Z,22.14
2023-05-17T17:14:55.936Z,22.06
2023-05-17T17:17:23.491Z,22.01
2023-05-17T17:19:51.299Z,21.94
2023-05-17T17:22:18.906Z,21.90
2023-05-17T17:24:46.538Z,21.87
2023-05-17T17:27:14.214Z,21.81
2023-05-17T17:29:41.802Z,21.77
2023-05-17T17:32:09.609Z,21.68
2023-05-17T17:34:37.496Z,21.61
2023-05-17T17:37:05.498Z,21.58
2023-05-17T17:39:33.526Z,21.53
2023-05-17T17:42:01.959Z,21.48
2023-05-17T17:44:29.720Z,21.39
2023-05-17T17:46:57.254Z,21.38
2023-05-17T17:49:24.919Z,21.36
2023-05-17T17:51:52.744Z,21.35
2023-05-17T17:54:20.409Z,21.29
2023-05-17T17:56:48.012Z,21.26
2023-05-17T17:59:15.536Z,21.23
2023-05-17T18:01:43.912Z,21.18
2023-05-17T18:04:13.656Z,21.13
2023-05-17T18:06:43.801Z,21.11
2023-05-17T18:09:11.593Z,21.11
2023-05-17T18:11:39.557Z,21.09
2023-05-17T18:14:08.216Z,21.11
2023-05-17T18:16:36.278Z,21.14
2023-05-17T18:19:04.003Z,21.11
2023-05-17T18:21:31.766Z,21.05
2023-05-17T18:24:00.418Z,20.99
2023-05-17T18:26:27.927Z,20.99
2023-05-17T18:28:55.485Z,20.95
2023-05-17T18:31:23.104Z,20.94
2023-05-17T18:33:50.692Z,20.94
2023-05-17T18:36:18.433Z,20.97
2023-05-17T18:38:45.971Z,20.94
2023-05-17T18:41:13.537Z,20.93
2023-05-17T18:43:41.086Z,20.94
2023-05-17T18:46:08.759Z,20.90
2023-05-17T18:48:37.057Z,20.86
2023-05-17T18:51:04.717Z,20.85
2023-05-17T18:53:32.427Z,20.81
2023-05-17T18:56:02.544Z,20.75
2023-05-17T18:58:30.277Z,20.73
2023-05-17T19:00:58.062Z,20.68
2023-05-17T19:03:25.717Z,20.69
2023-05-17T19:05:53.481Z,20.62
2023-05-17T19:08:21.142Z,20.51
2023-05-17T19:10:48.817Z,20.46
2023-05-17T19:13:16.461Z,20.38
2023-05-17T19:15:44.032Z,20.37
2023-05-17T19:18:11.672Z,20.34
2023-05-17T19:20:39.312Z,20.33
2023-05-17T19:23:06.958Z,20.31
2023-05-17T19:25:34.730Z,20.18
2023-05-17T19:28:02.383Z,20.05
2023-05-17T19:30:32.742Z,20.09
2023-05-17T19:33:01.619Z,20.09
2023-05-17T19:35:30.093Z,20.08
2023-05-17T19:37:57.697Z,20.08
2023-05-17T19:40:25.399Z,20.07
2023-05-17T19:42:52.918Z,20.05
2023-05-17T19:45:21.062Z,19.96
2023-05-17T19:47:48.890Z,19.91
2023-05-17T19:50:16.948Z,19.93
2023-05-17T19:52:44.678Z,19.89
2023-05-17T19:55:15.850Z,19.82
2023-05-17T19:57:43.504Z,19.78
2023-05-17T20:00:11.672Z,19.79
2023-05-17T20:02:40.681Z,19.72
2023-05-17T20:05:08.831Z,19.59
2023-05-17T20:07:37.891Z,19.59
2023-05-17T20:10:06.486Z,19.55
2023-05-17T20:12:34.325Z,19.46
2023-05-17T20:15:02.061Z,19.44
2023-05-17T20:17:29.806Z,19.43
2023-05-17T20:19:57.428Z,19.36
2023-05-17T20:22:25.411Z,19.30
2023-05-17T20:24:53.748Z,19.24
2023-05-17T20:27:22.261Z,19.25
2023-05-17T20:29:49.905Z,19.17
2023-05-17T20:32:17.528Z,19.17
2023-05-17T20:34:45.228Z,19.08
2023-05-17T20:37:12.878Z,19.04
2023-05-17T20:39:40.606Z,19.02
2023-05-17T20:42:08.494Z,19.05
2023-05-17T20:44:36.174Z,18.95
2023-05-17T20:47:05.803Z,18.90
2023-05-17T20:49:33.415Z,18.83
2023-05-17T20:52:03.371Z,18.88
2023-05-17T20:54:31.474Z,18.85
2023-05-17T20:56:59.978Z,18.89
2023-05-17T20:59:27.618Z,18.89
2023-05-17T21:01:56.060Z,18.82
2023-05-17T21:04:23.837Z,18.79
2023-05-17T21:06:52.369Z,18.75
2023-05-17T21:09:19.936Z,18.76
2023-05-17T21:11:47.536Z,18.78
2023-05-17T21:14:15.248Z,18.79
2023-05-17T21:16:43.175Z,18.78
2023-05-17T21:19:11.075Z,18.71
2023-05-17T21:21:38.703Z,18.64
2023-05-17T21:24:06.893Z,18.61
2023-05-17T21:26:36.324Z,18.58
2023-05-17T21:29:06.208Z,18.60
2023-05-17T21:31:34.039Z,18.57
2023-05-17T21:34:01.675Z,18.52
2023-05-17T21:36:29.513Z,18.46
2023-05-17T21:38:57.234Z,18.46
2023-05-17T21:41:24.854Z,18.46
2023-05-17T21:43:52.453Z,18.42
2023-05-17T21:46:20.073Z,18.37
2023-05-17T21:48:47.676Z,18.32
2023-05-17T21:51:15.537Z,18.21
2023-05-17T21:53:43.158Z,18.13
2023-05-17T21:56:11.503Z,18.08
2023-05-17T21:58:39.201Z,18.12
2023-05-17T22:01:07.396Z,18.09
2023-05-17T22:03:35.136Z,17.98
2023-05-17T22:06:02.913Z,17.92
2023-05-17T22:08:32.208Z,17.85
2023-05-17T22:10:59.756Z,17.82
2023-05-17T22:13:27.654Z,17.83
2023-05-17T22:15:58.853Z,17.76
2023-05-17T22:18:27.664Z,17.72
2023-05-17T22:20:55.365Z,17.69
2023-05-17T22:23:23.090Z,17.68
2023-05-17T22:25:50.771Z,17.65
2023-05-17T22:28:18.578Z,17.56
2023-05-17T22:30:46.597Z,17.60
2023-05-17T22:33:14.697Z,17.58
2023-05-17T22:35:42.245Z,17.49
2023-05-17T22:38:11.370Z,17.52
2023-05-17T22:40:38.900Z,17.56
2023-05-17T22:43:08.327Z,17.49
2023-05-17T22:45:36.315Z,17.54
2023-05-17T22:48:05.881Z,17.51
2023-05-17T22:50:34.230Z,17.43
2023-05-17T22:53:01.766Z,17.41
2023-05-17T22:55:29.948Z,17.42
2023-05-17T22:57:58.162Z,17.38
2023-05-17T23:00:26.330Z,17.36
2023-05-17T23:02:54.029Z,17.31
2023-05-17T23:05:22.347Z,17.22
2023-05-17T23:07:49.887Z,17.18
2023-05-17T23:10:17.465Z,17.21
2023-05-17T23:12:45.281Z,17.22
2023-05-17T23:15:12.828Z,17.24
2023-05-17T23:17:41.277Z,17.18
2023-05-17T23:20:10.510Z,17.18
2023-05-17T23:22:39.314Z,17.19
2023-05-17T23:25:07.180Z,17.19
2023-05-17T23:27:35.783Z,17.18
2023-05-17T23:30:04.472Z,17.17
2023-05-17T23:32:32.759Z,17.14
2023-05-17T23:35:04.300Z,17.13
2023-05-17T23:37:36.270Z,17.04
2023-05-17T23:40:09.464Z,17.03
2023-05-17T23:42:37.845Z,17.01
2023-05-17T23:45:06.043Z,17.00
2023-05-17T23:47:33.934Z,16.94
2023-05-17T23:50:03.064Z,16.92
2023-05-17T23:52:32.741Z,16.95
2023-05-17T23:55:01.681Z,16.93
2023-05-17T23:57:29.767Z,16.79
2023-05-17T23:59:57.347Z,16.60
